sensor_id;sensor_type;location;lat;lon;timestamp;P1;durP1;ratioP1;P2;durP2;ratioP2
17197;SDS011;8715;51.010;6.812;2024-03-29T00:01:23;820.08;;;774.10;;
17197;SDS011;8715;51.010;6.812;2024-03-29T00:04:08;827.25;;;781.00;;
17197;SDS011;8715;51.010;6.812;2024-03-29T00:06:54;827.97;;;781.58;;
17197;SDS011;8715;51.010;6.812;2024-03-29T00:09:38;834.00;;;786.90;;
17197;SDS011;8715;51.010;6.812;2024-03-29T00:12:22;825.13;;;779.25;;
17197;SDS011;8715;51.010;6.812;2024-03-29T00:15:07;835.33;;;788.10;;
17197;SDS011;8715;51.010;6.812;2024-03-29T00:17:51;823.88;;;778.45;;
17197;SDS011;8715;51.010;6.812;2024-03-29T00:20:36;830.95;;;784.42;;
17197;SDS011;8715;51.010;6.812;2024-03-29T00:23:21;822.38;;;776.70;;
17197;SDS011;8715;51.010;6.812;2024-03-29T00:26:06;832.03;;;785.80;;
17197;SDS011;8715;51.010;6.812;2024-03-29T00:28:50;824.63;;;778.95;;
17197;SDS011;8715;51.010;6.812;2024-03-29T00:31:34;829.88;;;783.25;;
17197;SDS011;8715;51.010;6.812;2024-03-29T00:34:19;833.78;;;786.85;;
17197;SDS011;8715;51.010;6.812;2024-03-29T00:37:03;821.42;;;775.28;;
17197;SDS011;8715;51.010;6.812;2024-03-29T00:39:49;828.55;;;782.13;;
17197;SDS011;8715;51.010;6.812;2024-03-29T00:42:33;826.80;;;779.97;;
17197;SDS011;8715;51.010;6.812;2024-03-29T00:45:18;824.85;;;777.95;;
17197;SDS011;8715;51.010;6.812;2024-03-29T00:48:02;829.72;;;782.42;;
17197;SDS011;8715;51.010;6.812;2024-03-29T00:50:47;829.50;;;782.08;;
17197;SDS011;8715;51.010;6.812;2024-03-29T00:53:32;824.85;;;777.88;;
17197;SDS011;8715;51.010;6.812;2024-03-29T00:56:17;839.05;;;790.50;;
17197;SDS011;8715;51.010;6.812;2024-03-29T00:59:02;830.83;;;783.10;;
17197;SDS011;8715;51.010;6.812;2024-03-29T01:01:46;841.85;;;793.13;;
17197;SDS011;8715;51.010;6.812;2024-03-29T01:04:30;829.33;;;781.33;;
17197;SDS011;8715;51.010;6.812;2024-03-29T01:07:15;839.92;;;790.95;;
17197;SDS011;8715;51.010;6.812;2024-03-29T01:09:59;832.95;;;784.17;;
17197;SDS011;8715;51.010;6.812;2024-03-29T01:12:45;844.55;;;794.65;;
17197;SDS011;8715;51.010;6.812;2024-03-29T01:15:29;847.58;;;797.08;;
17197;SDS011;8715;51.010;6.812;2024-03-29T01:18:14;840.35;;;790.63;;
17197;SDS011;8715;51.010;6.812;2024-03-29T01:20:58;853.38;;;802.03;;
17197;SDS011;8715;51.010;6.812;2024-03-29T01:23:42;832.60;;;784.50;;
17197;SDS011;8715;51.010;6.812;2024-03-29T01:26:26;854.88;;;803.22;;
17197;SDS011;8715;51.010;6.812;2024-03-29T01:29:12;877.65;;;820.60;;
17197;SDS011;8715;51.010;6.812;2024-03-29T01:31:57;875.25;;;818.65;;
17197;SDS011;8715;51.010;6.812;2024-03-29T01:34:41;871.03;;;816.55;;
17197;SDS011;8715;51.010;6.812;2024-03-29T01:37:26;852.75;;;800.78;;
17197;SDS011;8715;51.010;6.812;2024-03-29T01:40:11;851.17;;;799.83;;
17197;SDS011;8715;51.010;6.812;2024-03-29T01:42:55;844.47;;;794.67;;
17197;SDS011;8715;51.010;6.812;2024-03-29T01:45:41;849.47;;;798.53;;
17197;SDS011;8715;51.010;6.812;2024-03-29T01:48:29;851.88;;;801.30;;
17197;SDS011;8715;51.010;6.812;2024-03-29T01:51:14;858.30;;;805.95;;
17197;SDS011;8715;51.010;6.812;2024-03-29T01:54:00;856.05;;;804.67;;
17197;SDS011;8715;51.010;6.812;2024-03-29T01:56:46;845.35;;;795.25;;
17197;SDS011;8715;51.010;6.812;2024-03-29T01:59:31;845.20;;;795.47;;
17197;SDS011;8715;51.010;6.812;2024-03-29T02:02:19;845.53;;;795.53;;
17197;SDS011;8715;51.010;6.812;2024-03-29T02:05:04;853.72;;;802.20;;
17197;SDS011;8715;51.010;6.812;2024-03-29T02:07:50;849.10;;;798.50;;
17197;SDS011;8715;51.010;6.812;2024-03-29T02:10:36;852.50;;;801.17;;
17197;SDS011;8715;51.010;6.812;2024-03-29T02:13:21;855.05;;;803.67;;
17197;SDS011;8715;51.010;6.812;2024-03-29T02:16:07;850.45;;;799.08;;
17197;SDS011;8715;51.010;6.812;2024-03-29T02:18:53;844.05;;;793.65;;
17197;SDS011;8715;51.010;6.812;2024-03-29T02:21:42;857.28;;;805.10;;
17197;SDS011;8715;51.010;6.812;2024-03-29T02:24:29;853.83;;;802.35;;
17197;SDS011;8715;51.010;6.812;2024-03-29T02:27:14;851.80;;;800.47;;
17197;SDS011;8715;51.010;6.812;2024-03-29T02:30:01;856.55;;;805.17;;
17197;SDS011;8715;51.010;6.812;2024-03-29T02:32:47;851.83;;;800.50;;
17197;SDS011;8715;51.010;6.812;2024-03-29T02:35:32;860.15;;;808.33;;
17197;SDS011;8715;51.010;6.812;2024-03-29T02:38:18;860.33;;;807.80;;
17197;SDS011;8715;51.010;6.812;2024-03-29T02:41:05;850.08;;;798.83;;
17197;SDS011;8715;51.010;6.812;2024-03-29T02:43:51;846.10;;;795.78;;
17197;SDS011;8715;51.010;6.812;2024-03-29T02:46:36;850.35;;;799.47;;
17197;SDS011;8715;51.010;6.812;2024-03-29T02:49:21;844.78;;;794.10;;
17197;SDS011;8715;51.010;6.812;2024-03-29T02:52:06;856.38;;;804.33;;
17197;SDS011;8715;51.010;6.812;2024-03-29T02:54:51;848.92;;;798.28;;
17197;SDS011;8715;51.010;6.812;2024-03-29T02:57:37;841.58;;;791.25;;
17197;SDS011;8715;51.010;6.812;2024-03-29T03:00:23;849.67;;;798.55;;
17197;SDS011;8715;51.010;6.812;2024-03-29T03:03:07;854.92;;;803.00;;
17197;SDS011;8715;51.010;6.812;2024-03-29T03:05:53;855.97;;;803.15;;
17197;SDS011;8715;51.010;6.812;2024-03-29T03:08:38;858.65;;;805.92;;
17197;SDS011;8715;51.010;6.812;2024-03-29T03:11:41;858.67;;;806.03;;
17197;SDS011;8715;51.010;6.812;2024-03-29T03:14:28;853.33;;;801.22;;
17197;SDS011;8715;51.010;6.812;2024-03-29T03:17:13;855.65;;;802.92;;
17197;SDS011;8715;51.010;6.812;2024-03-29T03:19:58;858.03;;;805.22;;
17197;SDS011;8715;51.010;6.812;2024-03-29T03:22:43;860.25;;;806.95;;
17197;SDS011;8715;51.010;6.812;2024-03-29T03:25:28;856.75;;;803.13;;
17197;SDS011;8715;51.010;6.812;2024-03-29T03:28:12;863.80;;;810.13;;
17197;SDS011;8715;51.010;6.812;2024-03-29T03:30:58;860.95;;;807.38;;
17197;SDS011;8715;51.010;6.812;2024-03-29T03:33:42;866.75;;;813.22;;
17197;SDS011;8715;51.010;6.812;2024-03-29T03:36:28;862.47;;;809.13;;
17197;SDS011;8715;51.010;6.812;2024-03-29T03:39:12;858.45;;;805.90;;
17197;SDS011;8715;51.010;6.812;2024-03-29T03:41:58;866.45;;;812.40;;
17197;SDS011;8715;51.010;6.812;2024-03-29T03:44:42;862.95;;;809.75;;
17197;SDS011;8715;51.010;6.812;2024-03-29T03:47:29;856.05;;;804.13;;
17197;SDS011;8715;51.010;6.812;2024-03-29T03:50:13;864.58;;;811.03;;
17197;SDS011;8715;51.010;6.812;2024-03-29T03:52:58;855.33;;;803.05;;
17197;SDS011;8715;51.010;6.812;2024-03-29T03:55:44;858.20;;;805.72;;
17197;SDS011;8715;51.010;6.812;2024-03-29T03:58:29;863.22;;;809.55;;
17197;SDS011;8715;51.010;6.812;2024-03-29T04:01:13;854.17;;;802.78;;
17197;SDS011;8715;51.010;6.812;2024-03-29T04:04:00;856.72;;;804.22;;
17197;SDS011;8715;51.010;6.812;2024-03-29T04:06:45;855.33;;;803.17;;
17197;SDS011;8715;51.010;6.812;2024-03-29T04:09:29;852.85;;;800.95;;
17197;SDS011;8715;51.010;6.812;2024-03-29T04:12:15;857.65;;;805.08;;
17197;SDS011;8715;51.010;6.812;2024-03-29T04:14:59;849.53;;;797.80;;
17197;SDS011;8715;51.010;6.812;2024-03-29T04:17:44;858.03;;;805.40;;
17197;SDS011;8715;51.010;6.812;2024-03-29T04:20:30;856.63;;;804.42;;
17197;SDS011;8715;51.010;6.812;2024-03-29T04:23:15;856.47;;;804.35;;
17197;SDS011;8715;51.010;6.812;2024-03-29T04:26:00;843.92;;;793.95;;
17197;SDS011;8715;51.010;6.812;2024-03-29T04:28:45;852.92;;;802.13;;
17197;SDS011;8715;51.010;6.812;2024-03-29T04:31:30;849.72;;;799.28;;
17197;SDS011;8715;51.010;6.812;2024-03-29T04:34:15;848.85;;;798.00;;
17197;SDS011;8715;51.010;6.812;2024-03-29T04:37:01;855.22;;;802.33;;
17197;SDS011;8715;51.010;6.812;2024-03-29T04:39:46;870.13;;;815.92;;
17197;SDS011;8715;51.010;6.812;2024-03-29T04:42:32;867.47;;;813.22;;
17197;SDS011;8715;51.010;6.812;2024-03-29T04:45:17;863.67;;;810.25;;
17197;SDS011;8715;51.010;6.812;2024-03-29T04:48:03;860.78;;;807.85;;
17197;SDS011;8715;51.010;6.812;2024-03-29T04:50:48;854.95;;;802.67;;
17197;SDS011;8715;51.010;6.812;2024-03-29T04:53:36;855.20;;;803.05;;
17197;SDS011;8715;51.010;6.812;2024-03-29T04:56:22;854.28;;;802.58;;
17197;SDS011;8715;51.010;6.812;2024-03-29T04:59:07;855.38;;;803.65;;
17197;SDS011;8715;51.010;6.812;2024-03-29T05:01:54;851.38;;;800.28;;
17197;SDS011;8715;51.010;6.812;2024-03-29T05:04:40;851.63;;;800.85;;
17197;SDS011;8715;51.010;6.812;2024-03-29T05:07:26;842.55;;;792.42;;
17197;SDS011;8715;51.010;6.812;2024-03-29T05:10:13;839.85;;;790.67;;
17197;SDS011;8715;51.010;6.812;2024-03-29T05:13:00;852.10;;;801.60;;
17197;SDS011;8715;51.010;6.812;2024-03-29T05:15:45;848.22;;;797.90;;
17197;SDS011;8715;51.010;6.812;2024-03-29T05:18:30;854.30;;;803.03;;
17197;SDS011;8715;51.010;6.812;2024-03-29T05:21:16;854.75;;;803.70;;
17197;SDS011;8715;51.010;6.812;2024-03-29T05:24:01;855.28;;;803.13;;
17197;SDS011;8715;51.010;6.812;2024-03-29T05:26:48;855.15;;;803.65;;
17197;SDS011;8715;51.010;6.812;2024-03-29T05:29:33;851.33;;;800.25;;
17197;SDS011;8715;51.010;6.812;2024-03-29T05:32:18;848.95;;;797.92;;
17197;SDS011;8715;51.010;6.812;2024-03-29T05:35:04;855.00;;;803.13;;
17197;SDS011;8715;51.010;6.812;2024-03-29T05:37:50;848.17;;;797.70;;
17197;SDS011;8715;51.010;6.812;2024-03-29T05:40:37;850.45;;;799.13;;
17197;SDS011;8715;51.010;6.812;2024-03-29T05:43:24;842.65;;;793.08;;
17197;SDS011;8715;51.010;6.812;2024-03-29T05:46:09;841.28;;;791.63;;
17197;SDS011;8715;51.010;6.812;2024-03-29T05:48:54;852.58;;;801.53;;
17197;SDS011;8715;51.010;6.812;2024-03-29T05:51:39;854.67;;;803.13;;
17197;SDS011;8715;51.010;6.812;2024-03-29T05:54:24;857.47;;;805.42;;
17197;SDS011;8715;51.010;6.812;2024-03-29T05:57:10;843.00;;;793.47;;
17197;SDS011;8715;51.010;6.812;2024-03-29T05:59:57;843.90;;;793.75;;
17197;SDS011;8715;51.010;6.812;2024-03-29T06:02:43;843.75;;;794.30;;
17197;SDS011;8715;51.010;6.812;2024-03-29T06:05:31;840.17;;;790.92;;
17197;SDS011;8715;51.010;6.812;2024-03-29T06:08:16;852.45;;;801.70;;
17197;SDS011;8715;51.010;6.812;2024-03-29T06:11:04;855.78;;;803.78;;
17197;SDS011;8715;51.010;6.812;2024-03-29T06:13:50;843.22;;;793.38;;
17197;SDS011;8715;51.010;6.812;2024-03-29T06:16:54;848.55;;;798.80;;
17197;SDS011;8715;51.010;6.812;2024-03-29T06:19:57;839.22;;;790.03;;
17197;SDS011;8715;51.010;6.812;2024-03-29T06:22:46;835.92;;;787.20;;
17197;SDS011;8715;51.010;6.812;2024-03-29T06:25:32;838.72;;;789.15;;
17197;SDS011;8715;51.010;6.812;2024-03-29T06:28:17;847.20;;;796.97;;
17197;SDS011;8715;51.010;6.812;2024-03-29T06:31:02;836.25;;;787.03;;
17197;SDS011;8715;51.010;6.812;2024-03-29T06:33:49;846.03;;;796.38;;
17197;SDS011;8715;51.010;6.812;2024-03-29T06:36:34;855.30;;;803.67;;
17197;SDS011;8715;51.010;6.812;2024-03-29T06:39:22;862.95;;;810.53;;
17197;SDS011;8715;51.010;6.812;2024-03-29T06:42:08;860.17;;;807.95;;
17197;SDS011;8715;51.010;6.812;2024-03-29T06:44:54;846.67;;;795.80;;
17197;SDS011;8715;51.010;6.812;2024-03-29T06:47:39;857.08;;;804.55;;
17197;SDS011;8715;51.010;6.812;2024-03-29T06:50:25;854.08;;;802.30;;
17197;SDS011;8715;51.010;6.812;2024-03-29T06:53:14;850.00;;;798.38;;
17197;SDS011;8715;51.010;6.812;2024-03-29T06:56:00;864.08;;;810.75;;
17197;SDS011;8715;51.010;6.812;2024-03-29T06:58:45;857.10;;;804.53;;
17197;SDS011;8715;51.010;6.812;2024-03-29T07:01:30;857.40;;;804.75;;
17197;SDS011;8715;51.010;6.812;2024-03-29T07:04:16;860.63;;;807.20;;
17197;SDS011;8715;51.010;6.812;2024-03-29T07:07:02;857.00;;;803.83;;
17197;SDS011;8715;51.010;6.812;2024-03-29T07:09:48;860.45;;;807.15;;
17197;SDS011;8715;51.010;6.812;2024-03-29T07:12:33;863.58;;;810.00;;
17197;SDS011;8715;51.010;6.812;2024-03-29T07:15:18;866.13;;;811.70;;
17197;SDS011;8715;51.010;6.812;2024-03-29T07:18:04;861.78;;;807.55;;
17197;SDS011;8715;51.010;6.812;2024-03-29T07:20:50;867.92;;;813.35;;
17197;SDS011;8715;51.010;6.812;2024-03-29T07:23:36;863.83;;;808.97;;
17197;SDS011;8715;51.010;6.812;2024-03-29T07:26:22;873.67;;;818.33;;
17197;SDS011;8715;51.010;6.812;2024-03-29T07:29:07;873.50;;;817.83;;
17197;SDS011;8715;51.010;6.812;2024-03-29T07:31:53;871.80;;;816.13;;
17197;SDS011;8715;51.010;6.812;2024-03-29T07:34:38;879.72;;;822.88;;
17197;SDS011;8715;51.010;6.812;2024-03-29T07:37:24;875.53;;;819.08;;
17197;SDS011;8715;51.010;6.812;2024-03-29T07:40:11;871.15;;;815.05;;
17197;SDS011;8715;51.010;6.812;2024-03-29T07:42:56;876.45;;;819.28;;
17197;SDS011;8715;51.010;6.812;2024-03-29T07:45:43;878.08;;;820.83;;
17197;SDS011;8715;51.010;6.812;2024-03-29T07:48:29;882.53;;;824.42;;
17197;SDS011;8715;51.010;6.812;2024-03-29T07:51:14;879.10;;;821.22;;
17197;SDS011;8715;51.010;6.812;2024-03-29T07:53:59;887.75;;;828.88;;
17197;SDS011;8715;51.010;6.812;2024-03-29T07:56:46;891.60;;;831.00;;
17197;SDS011;8715;51.010;6.812;2024-03-29T07:59:31;892.78;;;831.97;;
17197;SDS011;8715;51.010;6.812;2024-03-29T08:02:17;897.72;;;836.72;;
17197;SDS011;8715;51.010;6.812;2024-03-29T08:05:02;885.53;;;826.40;;
17197;SDS011;8715;51.010;6.812;2024-03-29T08:07:48;888.83;;;829.25;;
17197;SDS011;8715;51.010;6.812;2024-03-29T08:10:33;895.05;;;833.70;;
17197;SDS011;8715;51.010;6.812;2024-03-29T08:13:20;889.65;;;830.17;;
17197;SDS011;8715;51.010;6.812;2024-03-29T08:16:07;896.40;;;835.75;;
17197;SDS011;8715;51.010;6.812;2024-03-29T08:18:52;896.58;;;835.75;;
17197;SDS011;8715;51.010;6.812;2024-03-29T08:21:38;888.47;;;828.83;;
17197;SDS011;8715;51.010;6.812;2024-03-29T08:24:23;885.45;;;825.92;;
17197;SDS011;8715;51.010;6.812;2024-03-29T08:27:09;884.47;;;825.08;;
17197;SDS011;8715;51.010;6.812;2024-03-29T08:29:55;887.38;;;827.28;;
17197;SDS011;8715;51.010;6.812;2024-03-29T08:32:42;896.75;;;835.58;;
17197;SDS011;8715;51.010;6.812;2024-03-29T08:35:33;893.53;;;832.88;;
17197;SDS011;8715;51.010;6.812;2024-03-29T08:38:18;893.03;;;832.90;;
17197;SDS011;8715;51.010;6.812;2024-03-29T08:41:04;892.72;;;832.60;;
17197;SDS011;8715;51.010;6.812;2024-03-29T08:43:49;899.35;;;838.33;;
17197;SDS011;8715;51.010;6.812;2024-03-29T08:46:35;891.70;;;831.08;;
17197;SDS011;8715;51.010;6.812;2024-03-29T08:49:21;897.33;;;835.85;;
17197;SDS011;8715;51.010;6.812;2024-03-29T08:52:06;904.63;;;842.13;;
17197;SDS011;8715;51.010;6.812;2024-03-29T08:54:51;904.80;;;842.08;;
17197;SDS011;8715;51.010;6.812;2024-03-29T08:57:37;903.47;;;840.03;;
17197;SDS011;8715;51.010;6.812;2024-03-29T09:00:22;903.58;;;839.92;;
17197;SDS011;8715;51.010;6.812;2024-03-29T09:03:08;919.45;;;853.70;;
17197;SDS011;8715;51.010;6.812;2024-03-29T09:05:53;921.00;;;853.75;;
17197;SDS011;8715;51.010;6.812;2024-03-29T09:08:39;918.50;;;852.15;;
17197;SDS011;8715;51.010;6.812;2024-03-29T09:11:24;916.33;;;850.38;;
17197;SDS011;8715;51.010;6.812;2024-03-29T09:14:09;910.83;;;845.35;;
17197;SDS011;8715;51.010;6.812;2024-03-29T09:16:56;918.83;;;852.45;;
17197;SDS011;8715;51.010;6.812;2024-03-29T09:19:43;916.63;;;850.58;;
17197;SDS011;8715;51.010;6.812;2024-03-29T09:22:28;919.38;;;851.88;;
17197;SDS011;8715;51.010;6.812;2024-03-29T09:25:14;921.53;;;853.58;;
17197;SDS011;8715;51.010;6.812;2024-03-29T09:27:59;921.45;;;853.50;;
17197;SDS011;8715;51.010;6.812;2024-03-29T09:30:44;929.60;;;860.00;;
17197;SDS011;8715;51.010;6.812;2024-03-29T09:33:29;927.80;;;858.65;;
17197;SDS011;8715;51.010;6.812;2024-03-29T09:36:16;922.30;;;854.65;;
17197;SDS011;8715;51.010;6.812;2024-03-29T09:39:01;923.30;;;855.00;;
17197;SDS011;8715;51.010;6.812;2024-03-29T09:41:47;922.33;;;853.90;;
17197;SDS011;8715;51.010;6.812;2024-03-29T09:44:33;920.20;;;852.15;;
17197;SDS011;8715;51.010;6.812;2024-03-29T09:47:19;924.70;;;857.03;;
17197;SDS011;8715;51.010;6.812;2024-03-29T09:50:05;915.72;;;848.92;;
17197;SDS011;8715;51.010;6.812;2024-03-29T09:52:54;918.97;;;851.75;;
17197;SDS011;8715;51.010;6.812;2024-03-29T09:55:40;925.58;;;856.75;;
17197;SDS011;8715;51.010;6.812;2024-03-29T09:58:25;923.22;;;854.63;;
17197;SDS011;8715;51.010;6.812;2024-03-29T10:01:11;925.38;;;856.05;;
17197;SDS011;8715;51.010;6.812;2024-03-29T10:03:56;932.15;;;860.88;;
17197;SDS011;8715;51.010;6.812;2024-03-29T10:06:41;922.55;;;853.63;;
17197;SDS011;8715;51.010;6.812;2024-03-29T10:12:17;917.72;;;850.20;;
17197;SDS011;8715;51.010;6.812;2024-03-29T10:15:02;926.28;;;856.70;;
17197;SDS011;8715;51.010;6.812;2024-03-29T10:17:52;929.10;;;859.38;;
17197;SDS011;8715;51.010;6.812;2024-03-29T10:20:39;925.67;;;856.33;;
17197;SDS011;8715;51.010;6.812;2024-03-29T10:23:25;929.35;;;859.65;;
17197;SDS011;8715;51.010;6.812;2024-03-29T10:26:11;927.88;;;858.47;;
17197;SDS011;8715;51.010;6.812;2024-03-29T10:28:57;928.35;;;858.17;;
17197;SDS011;8715;51.010;6.812;2024-03-29T10:31:42;935.50;;;864.00;;
17197;SDS011;8715;51.010;6.812;2024-03-29T10:34:29;934.42;;;862.95;;
17197;SDS011;8715;51.010;6.812;2024-03-29T10:37:17;932.33;;;861.53;;
17197;SDS011;8715;51.010;6.812;2024-03-29T10:40:09;929.38;;;858.85;;
17197;SDS011;8715;51.010;6.812;2024-03-29T10:43:00;931.25;;;860.65;;
17197;SDS011;8715;51.010;6.812;2024-03-29T10:45:48;928.47;;;858.22;;
17197;SDS011;8715;51.010;6.812;2024-03-29T10:48:34;930.28;;;859.83;;
17197;SDS011;8715;51.010;6.812;2024-03-29T10:51:21;931.65;;;861.13;;
17197;SDS011;8715;51.010;6.812;2024-03-29T10:54:08;934.63;;;863.47;;
17197;SDS011;8715;51.010;6.812;2024-03-29T10:56:56;929.70;;;859.53;;
17197;SDS011;8715;51.010;6.812;2024-03-29T10:59:48;929.65;;;859.38;;
17197;SDS011;8715;51.010;6.812;2024-03-29T11:02:38;934.58;;;863.45;;
17197;SDS011;8715;51.010;6.812;2024-03-29T11:05:28;931.65;;;860.70;;
17197;SDS011;8715;51.010;6.812;2024-03-29T11:08:14;933.63;;;861.95;;
17197;SDS011;8715;51.010;6.812;2024-03-29T11:11:05;933.80;;;862.97;;
17197;SDS011;8715;51.010;6.812;2024-03-29T11:13:53;934.92;;;863.88;;
17197;SDS011;8715;51.010;6.812;2024-03-29T11:16:42;943.13;;;870.38;;
17197;SDS011;8715;51.010;6.812;2024-03-29T11:19:29;936.65;;;864.60;;
17197;SDS011;8715;51.010;6.812;2024-03-29T11:22:14;935.17;;;863.60;;
17197;SDS011;8715;51.010;6.812;2024-03-29T11:25:00;935.85;;;864.25;;
17197;SDS011;8715;51.010;6.812;2024-03-29T11:30:33;936.80;;;865.63;;
17197;SDS011;8715;51.010;6.812;2024-03-29T11:33:30;933.10;;;861.97;;
17197;SDS011;8715;51.010;6.812;2024-03-29T11:36:16;936.17;;;864.67;;
17197;SDS011;8715;51.010;6.812;2024-03-29T11:39:02;935.05;;;863.97;;
17197;SDS011;8715;51.010;6.812;2024-03-29T11:41:48;937.08;;;865.47;;
17197;SDS011;8715;51.010;6.812;2024-03-29T11:44:34;930.75;;;859.88;;
17197;SDS011;8715;51.010;6.812;2024-03-29T11:47:19;931.83;;;861.03;;
17197;SDS011;8715;51.010;6.812;2024-03-29T11:50:07;940.50;;;868.88;;
17197;SDS011;8715;51.010;6.812;2024-03-29T11:52:53;933.47;;;862.03;;
17197;SDS011;8715;51.010;6.812;2024-03-29T11:55:38;935.97;;;864.30;;
17197;SDS011;8715;51.010;6.812;2024-03-29T11:58:23;937.42;;;865.42;;
17197;SDS011;8715;51.010;6.812;2024-03-29T12:01:09;939.40;;;867.08;;
17197;SDS011;8715;51.010;6.812;2024-03-29T12:03:57;938.30;;;865.70;;
17197;SDS011;8715;51.010;6.812;2024-03-29T12:06:44;939.15;;;866.83;;
17197;SDS011;8715;51.010;6.812;2024-03-29T12:09:30;940.08;;;867.15;;
17197;SDS011;8715;51.010;6.812;2024-03-29T12:12:15;939.63;;;867.72;;
17197;SDS011;8715;51.010;6.812;2024-03-29T12:15:01;937.10;;;865.17;;
17197;SDS011;8715;51.010;6.812;2024-03-29T12:17:52;933.08;;;861.90;;
17197;SDS011;8715;51.010;6.812;2024-03-29T12:20:38;935.80;;;864.08;;
17197;SDS011;8715;51.010;6.812;2024-03-29T12:23:25;935.00;;;863.83;;
17197;SDS011;8715;51.010;6.812;2024-03-29T12:26:10;929.47;;;859.25;;
17197;SDS011;8715;51.010;6.812;2024-03-29T12:28:56;928.25;;;858.40;;
17197;SDS011;8715;51.010;6.812;2024-03-29T12:31:41;929.28;;;859.00;;
17197;SDS011;8715;51.010;6.812;2024-03-29T12:34:27;929.22;;;859.20;;
17197;SDS011;8715;51.010;6.812;2024-03-29T12:37:12;929.22;;;859.22;;
17197;SDS011;8715;51.010;6.812;2024-03-29T12:40:00;930.47;;;860.30;;
17197;SDS011;8715;51.010;6.812;2024-03-29T12:42:55;929.40;;;859.45;;
17197;SDS011;8715;51.010;6.812;2024-03-29T12:45:41;926.30;;;856.53;;
17197;SDS011;8715;51.010;6.812;2024-03-29T12:48:26;927.17;;;857.58;;
17197;SDS011;8715;51.010;6.812;2024-03-29T12:51:12;932.45;;;862.70;;
17197;SDS011;8715;51.010;6.812;2024-03-29T12:54:00;932.15;;;862.25;;
17197;SDS011;8715;51.010;6.812;2024-03-29T12:56:48;928.78;;;859.45;;
17197;SDS011;8715;51.010;6.812;2024-03-29T12:59:33;930.60;;;860.47;;
17197;SDS011;8715;51.010;6.812;2024-03-29T13:02:19;930.83;;;861.17;;
17197;SDS011;8715;51.010;6.812;2024-03-29T13:05:06;928.67;;;858.85;;
17197;SDS011;8715;51.010;6.812;2024-03-29T13:07:52;930.38;;;860.65;;
17197;SDS011;8715;51.010;6.812;2024-03-29T13:10:38;932.40;;;861.95;;
17197;SDS011;8715;51.010;6.812;2024-03-29T13:13:25;931.92;;;861.50;;
17197;SDS011;8715;51.010;6.812;2024-03-29T13:16:10;933.78;;;862.95;;
17197;SDS011;8715;51.010;6.812;2024-03-29T13:18:55;936.20;;;865.03;;
17197;SDS011;8715;51.010;6.812;2024-03-29T13:21:41;936.53;;;864.58;;
17197;SDS011;8715;51.010;6.812;2024-03-29T13:24:26;936.72;;;864.65;;
17197;SDS011;8715;51.010;6.812;2024-03-29T13:27:12;945.72;;;871.92;;
17197;SDS011;8715;51.010;6.812;2024-03-29T13:29:59;942.05;;;867.80;;
17197;SDS011;8715;51.010;6.812;2024-03-29T13:32:44;946.28;;;871.65;;
17197;SDS011;8715;51.010;6.812;2024-03-29T13:35:30;947.15;;;872.28;;
17197;SDS011;8715;51.010;6.812;2024-03-29T13:38:17;947.33;;;872.30;;
17197;SDS011;8715;51.010;6.812;2024-03-29T13:41:06;948.42;;;873.53;;
17197;SDS011;8715;51.010;6.812;2024-03-29T13:46:40;944.55;;;870.28;;
17197;SDS011;8715;51.010;6.812;2024-03-29T13:49:29;941.45;;;867.47;;
17197;SDS011;8715;51.010;6.812;2024-03-29T13:52:15;943.40;;;868.72;;
17197;SDS011;8715;51.010;6.812;2024-03-29T13:55:01;946.13;;;871.72;;
17197;SDS011;8715;51.010;6.812;2024-03-29T13:57:46;944.85;;;870.40;;
17197;SDS011;8715;51.010;6.812;2024-03-29T14:00:32;945.53;;;871.45;;
17197;SDS011;8715;51.010;6.812;2024-03-29T14:03:18;944.22;;;869.95;;
17197;SDS011;8715;51.010;6.812;2024-03-29T14:06:06;941.25;;;867.15;;
17197;SDS011;8715;51.010;6.812;2024-03-29T14:08:51;943.83;;;869.50;;
17197;SDS011;8715;51.010;6.812;2024-03-29T14:11:36;944.72;;;870.55;;
17197;SDS011;8715;51.010;6.812;2024-03-29T14:14:21;941.65;;;867.97;;
17197;SDS011;8715;51.010;6.812;2024-03-29T14:17:07;941.08;;;867.38;;
17197;SDS011;8715;51.010;6.812;2024-03-29T14:19:54;945.13;;;870.92;;
17197;SDS011;8715;51.010;6.812;2024-03-29T14:22:40;943.40;;;870.08;;
17197;SDS011;8715;51.010;6.812;2024-03-29T14:25:25;939.50;;;866.17;;
17197;SDS011;8715;51.010;6.812;2024-03-29T14:28:10;942.72;;;869.15;;
17197;SDS011;8715;51.010;6.812;2024-03-29T14:30:56;941.25;;;868.22;;
17197;SDS011;8715;51.010;6.812;2024-03-29T14:33:41;941.97;;;868.90;;
17197;SDS011;8715;51.010;6.812;2024-03-29T14:36:27;941.40;;;868.70;;
17197;SDS011;8715;51.010;6.812;2024-03-29T14:39:16;944.47;;;871.35;;
17197;SDS011;8715;51.010;6.812;2024-03-29T14:42:02;941.75;;;869.17;;
17197;SDS011;8715;51.010;6.812;2024-03-29T14:44:49;938.40;;;865.90;;
17197;SDS011;8715;51.010;6.812;2024-03-29T14:47:34;938.35;;;866.08;;
17197;SDS011;8715;51.010;6.812;2024-03-29T14:50:20;939.42;;;867.40;;
17197;SDS011;8715;51.010;6.812;2024-03-29T14:53:07;938.60;;;867.03;;
17197;SDS011;8715;51.010;6.812;2024-03-29T14:55:53;939.63;;;867.55;;
17197;SDS011;8715;51.010;6.812;2024-03-29T14:58:38;935.50;;;863.92;;
17197;SDS011;8715;51.010;6.812;2024-03-29T15:01:24;936.75;;;865.22;;
17197;SDS011;8715;51.010;6.812;2024-03-29T15:04:09;937.58;;;866.08;;
17197;SDS011;8715;51.010;6.812;2024-03-29T15:06:54;937.53;;;865.85;;
17197;SDS011;8715;51.010;6.812;2024-03-29T15:09:41;936.95;;;865.33;;
17197;SDS011;8715;51.010;6.812;2024-03-29T15:12:26;936.30;;;864.63;;
17197;SDS011;8715;51.010;6.812;2024-03-29T15:15:11;935.70;;;864.10;;
17197;SDS011;8715;51.010;6.812;2024-03-29T15:17:57;935.85;;;864.45;;
17197;SDS011;8715;51.010;6.812;2024-03-29T15:20:44;940.53;;;868.45;;
17197;SDS011;8715;51.010;6.812;2024-03-29T15:23:38;939.67;;;867.83;;
17197;SDS011;8715;51.010;6.812;2024-03-29T15:26:24;935.42;;;863.92;;
17197;SDS011;8715;51.010;6.812;2024-03-29T15:29:11;931.42;;;860.65;;
17197;SDS011;8715;51.010;6.812;2024-03-29T15:31:57;931.83;;;861.35;;
17197;SDS011;8715;51.010;6.812;2024-03-29T15:34:42;933.95;;;863.35;;
17197;SDS011;8715;51.010;6.812;2024-03-29T15:37:27;933.58;;;862.65;;
17197;SDS011;8715;51.010;6.812;2024-03-29T15:40:12;935.10;;;864.33;;
17197;SDS011;8715;51.010;6.812;2024-03-29T15:42:59;933.63;;;863.35;;
17197;SDS011;8715;51.010;6.812;2024-03-29T15:45:45;933.28;;;862.50;;
17197;SDS011;8715;51.010;6.812;2024-03-29T15:48:30;934.15;;;863.70;;
17197;SDS011;8715;51.010;6.812;2024-03-29T15:51:15;933.25;;;863.03;;
17197;SDS011;8715;51.010;6.812;2024-03-29T15:54:00;930.72;;;861.10;;
17197;SDS011;8715;51.010;6.812;2024-03-29T15:56:50;931.20;;;861.45;;
17197;SDS011;8715;51.010;6.812;2024-03-29T15:59:36;929.00;;;859.72;;
17197;SDS011;8715;51.010;6.812;2024-03-29T16:02:22;930.13;;;860.70;;
17197;SDS011;8715;51.010;6.812;2024-03-29T16:05:07;931.10;;;861.30;;